sensor_id;sensor_type;location;lat;lon;timestamp;pressure;altitude;pressure_sealevel;temperature;humidity
71194;BME280;58903;47.210;8.618;2022-09-02T00:01:30;94134.16;;;28.54;41.04
71194;BME280;58903;47.210;8.618;2022-09-02T00:04:02;94140.47;;;28.54;40.96
71194;BME280;58903;47.210;8.618;2022-09-02T00:06:33;94131.94;;;28.52;40.49
71194;BME280;58903;47.210;8.618;2022-09-02T00:09:04;94131.00;;;28.50;40.64
71194;BME280;58903;47.210;8.618;2022-09-02T00:11:35;94131.53;;;28.48;40.88
71194;BME280;58903;47.210;8.618;2022-09-02T00:14:07;94126.56;;;28.47;40.75
71194;BME280;58903;47.210;8.618;2022-09-02T00:16:34;94128.03;;;28.48;40.79
71194;BME280;58903;47.210;8.618;2022-09-02T00:19:31;94128.78;;;28.48;40.51
71194;BME280;58903;47.210;8.618;2022-09-02T00:22:00;94122.50;;;28.48;41.11
71194;BME280;58903;47.210;8.618;2022-09-02T00:24:29;94121.75;;;28.47;40.64
71194;BME280;58903;47.210;8.618;2022-09-02T00:26:58;94123.25;;;28.48;40.65
71194;BME280;58903;47.210;8.618;2022-09-02T00:29:27;94125.25;;;28.48;40.64
71194;BME280;58903;47.210;8.618;2022-09-02T00:31:57;94121.03;;;28.47;40.48
71194;BME280;58903;47.210;8.618;2022-09-02T00:34:28;94116.75;;;28.46;40.69
71194;BME280;58903;47.210;8.618;2022-09-02T00:37:07;94123.03;;;28.46;40.96
71194;BME280;58903;47.210;8.618;2022-09-02T00:39:35;94128.56;;;28.46;40.83
71194;BME280;58903;47.210;8.618;2022-09-02T00:42:02;94117.50;;;28.46;41.37
71194;BME280;58903;47.210;8.618;2022-09-02T00:44:48;94125.59;;;28.44;40.77
71194;BME280;58903;47.210;8.618;2022-09-02T00:47:45;94116.00;;;28.45;41.02
71194;BME280;58903;47.210;8.618;2022-09-02T00:50:17;94110.25;;;28.43;41.00
71194;BME280;58903;47.210;8.618;2022-09-02T00:52:53;94117.84;;;28.43;40.88
71194;BME280;58903;47.210;8.618;2022-09-02T00:55:36;94115.78;;;28.43;41.52
71194;BME280;58903;47.210;8.618;2022-09-02T00:58:09;94114.13;;;28.40;40.81
71194;BME280;58903;47.210;8.618;2022-09-02T01:00:50;94116.34;;;28.42;41.42
71194;BME280;58903;47.210;8.618;2022-09-02T01:03:25;94119.84;;;28.42;41.15
71194;BME280;58903;47.210;8.618;2022-09-02T01:05:56;94122.06;;;28.44;40.65
71194;BME280;58903;47.210;8.618;2022-09-02T01:08:28;94119.09;;;28.42;40.92
71194;BME280;58903;47.210;8.618;2022-09-02T01:10:57;94120.38;;;28.41;40.89
71194;BME280;58903;47.210;8.618;2022-09-02T01:13:29;94112.63;;;28.39;40.85
71194;BME280;58903;47.210;8.618;2022-09-02T01:18:49;94118.16;;;28.39;41.21
71194;BME280;58903;47.210;8.618;2022-09-02T01:21:27;94115.19;;;28.37;41.17
71194;BME280;58903;47.210;8.618;2022-09-02T01:23:54;94105.63;;;28.38;40.80
71194;BME280;58903;47.210;8.618;2022-09-02T01:26:31;94115.94;;;28.38;41.09
71194;BME280;58903;47.210;8.618;2022-09-02T01:29:07;94106.88;;;28.37;40.93
71194;BME280;58903;47.210;8.618;2022-09-02T01:31:42;94114.44;;;28.36;41.13
71194;BME280;58903;47.210;8.618;2022-09-02T01:34:09;94112.41;;;28.37;41.09
71194;BME280;58903;47.210;8.618;2022-09-02T01:36:43;94113.72;;;28.36;41.01
71194;BME280;58903;47.210;8.618;2022-09-02T01:39:19;94098.38;;;28.35;40.57
71194;BME280;58903;47.210;8.618;2022-09-02T01:42:13;94103.91;;;28.35;40.86
71194;BME280;58903;47.210;8.618;2022-09-02T01:44:39;94113.72;;;28.36;40.94
71194;BME280;58903;47.210;8.618;2022-09-02T01:47:20;94105.41;;;28.36;40.77
71194;BME280;58903;47.210;8.618;2022-09-02T01:49:58;94104.66;;;28.35;41.10
71194;BME280;58903;47.210;8.618;2022-09-02T01:52:29;94098.38;;;28.35;41.15
71194;BME280;58903;47.210;8.618;2022-09-02T01:55:01;94104.47;;;28.33;40.80
71194;BME280;58903;47.210;8.618;2022-09-02T01:57:36;94099.66;;;28.34;41.04
71194;BME280;58903;47.210;8.618;2022-09-02T02:00:12;94102.94;;;28.32;40.92
71194;BME280;58903;47.210;8.618;2022-09-02T02:02:48;94105.19;;;28.34;40.66
71194;BME280;58903;47.210;8.618;2022-09-02T02:05:43;94103.69;;;28.33;40.95
71194;BME280;58903;47.210;8.618;2022-09-02T02:08:22;94102.19;;;28.32;40.73
71194;BME280;58903;47.210;8.618;2022-09-02T02:10:48;94100.72;;;28.31;41.47
71194;BME280;58903;47.210;8.618;2022-09-02T02:13:14;94101.28;;;28.29;40.55
71194;BME280;58903;47.210;8.618;2022-09-02T02:15:42;94100.72;;;28.31;41.03
71194;BME280;58903;47.210;8.618;2022-09-02T02:18:10;94099.97;;;28.30;41.13
71194;BME280;58903;47.210;8.618;2022-09-02T02:20:47;94102.00;;;28.30;41.75
71194;BME280;58903;47.210;8.618;2022-09-02T02:23:45;94095.00;;;28.29;41.15
71194;BME280;58903;47.210;8.618;2022-09-02T02:26:11;94097.00;;;28.28;40.61
71194;BME280;58903;47.210;8.618;2022-09-02T02:28:56;94102.53;;;28.28;40.97
71194;BME280;58903;47.210;8.618;2022-09-02T02:31:50;94107.31;;;28.28;41.16
71194;BME280;58903;47.210;8.618;2022-09-02T02:34:16;94110.09;;;28.28;41.07
71194;BME280;58903;47.210;8.618;2022-09-02T02:36:45;94097.56;;;28.27;41.14
71194;BME280;58903;47.210;8.618;2022-09-02T02:39:26;94094.03;;;28.26;41.38
71194;BME280;58903;47.210;8.618;2022-09-02T02:42:13;94098.81;;;28.26;41.38
71194;BME280;58903;47.210;8.618;2022-09-02T02:44:57;94091.06;;;28.24;40.94
71194;BME280;58903;47.210;8.618;2022-09-02T02:47:25;94091.81;;;28.25;41.14
71194;BME280;58903;47.210;8.618;2022-09-02T02:49:53;94094.38;;;28.23;40.58
71194;BME280;58903;47.210;8.618;2022-09-02T02:52:20;94100.63;;;28.23;41.55
71194;BME280;58903;47.210;8.618;2022-09-02T02:55:01;94101.38;;;28.24;40.92
71194;BME280;58903;47.210;8.618;2022-09-02T02:57:41;94096.59;;;28.24;40.78
71194;BME280;58903;47.210;8.618;2022-09-02T03:00:13;94095.84;;;28.24;41.16
71194;BME280;58903;47.210;8.618;2022-09-02T03:02:41;94100.63;;;28.23;41.12
71194;BME280;58903;47.210;8.618;2022-09-02T03:05:11;94104.16;;;28.24;41.11
71194;BME280;58903;47.210;8.618;2022-09-02T03:07:49;94098.63;;;28.24;41.38
71194;BME280;58903;47.210;8.618;2022-09-02T03:10:16;94102.69;;;28.23;41.13
71194;BME280;58903;47.210;8.618;2022-09-02T03:12:47;94093.63;;;28.22;41.51
71194;BME280;58903;47.210;8.618;2022-09-02T03:15:15;94101.19;;;28.22;41.05
71194;BME280;58903;47.210;8.618;2022-09-02T03:17:48;94106.72;;;28.22;41.46
71194;BME280;58903;47.210;8.618;2022-09-02T03:20:53;94110.75;;;28.21;41.13
71194;BME280;58903;47.210;8.618;2022-09-02T03:23:29;94103.72;;;28.20;41.13
71194;BME280;58903;47.210;8.618;2022-09-02T03:26:23;94100.97;;;28.20;41.03
71194;BME280;58903;47.210;8.618;2022-09-02T03:28:54;94093.22;;;28.18;41.10
71194;BME280;58903;47.210;8.618;2022-09-02T03:31:31;94093.94;;;28.19;40.92
71194;BME280;58903;47.210;8.618;2022-09-02T03:33:57;94093.22;;;28.18;40.82
71194;BME280;58903;47.210;8.618;2022-09-02T03:36:28;94089.69;;;28.18;40.96
71194;BME280;58903;47.210;8.618;2022-09-02T03:38:59;94098.00;;;28.18;41.35
71194;BME280;58903;47.210;8.618;2022-09-02T03:41:28;94102.03;;;28.17;41.23
71194;BME280;58903;47.210;8.618;2022-09-02T03:44:11;94096.50;;;28.17;41.01
71194;BME280;58903;47.210;8.618;2022-09-02T03:46:40;94090.25;;;28.16;41.31
71194;BME280;58903;47.210;8.618;2022-09-02T03:49:12;94100.75;;;28.18;40.89
71194;BME280;58903;47.210;8.618;2022-09-02T03:51:44;94085.78;;;28.13;41.10
71194;BME280;58903;47.210;8.618;2022-09-02T03:54:11;94101.31;;;28.16;41.05
71194;BME280;58903;47.210;8.618;2022-09-02T03:57:11;94105.34;;;28.15;41.22
71194;BME280;58903;47.210;8.618;2022-09-02T03:59:37;94102.56;;;28.15;40.97
71194;BME280;58903;47.210;8.618;2022-09-02T04:02:06;94099.06;;;28.15;41.02
71194;BME280;58903;47.210;8.618;2022-09-02T04:04:32;94105.88;;;28.14;41.29
71194;BME280;58903;47.210;8.618;2022-09-02T04:06:59;94099.59;;;28.13;41.24
71194;BME280;58903;47.210;8.618;2022-09-02T04:09:47;94094.06;;;28.13;41.30
71194;BME280;58903;47.210;8.618;2022-09-02T04:12:13;94098.09;;;28.12;41.04
71194;BME280;58903;47.210;8.618;2022-09-02T04:14:39;94106.38;;;28.12;40.96
71194;BME280;58903;47.210;8.618;2022-09-02T04:17:09;94096.41;;;28.09;41.42
71194;BME280;58903;47.210;8.618;2022-09-02T04:19:46;94097.38;;;28.12;41.68
71194;BME280;58903;47.210;8.618;2022-09-02T04:22:23;94094.41;;;28.10;41.27
71194;BME280;58903;47.210;8.618;2022-09-02T04:24:51;94092.38;;;28.10;41.61
71194;BME280;58903;47.210;8.618;2022-09-02T04:27:17;94093.66;;;28.09;41.43
71194;BME280;58903;47.210;8.618;2022-09-02T04:29:52;94088.63;;;28.08;41.04
71194;BME280;58903;47.210;8.618;2022-09-02T04:32:19;94095.66;;;28.09;41.05
71194;BME280;58903;47.210;8.618;2022-09-02T04:34:46;94087.91;;;28.07;41.57
71194;BME280;58903;47.210;8.618;2022-09-02T04:37:21;94080.88;;;28.06;41.03
71194;BME280;58903;47.210;8.618;2022-09-02T04:39:50;94088.63;;;28.08;41.16
71194;BME280;58903;47.210;8.618;2022-09-02T04:42:21;94084.41;;;28.07;41.13
71194;BME280;58903;47.210;8.618;2022-09-02T04:44:50;94091.19;;;28.06;41.46
71194;BME280;58903;47.210;8.618;2022-09-02T04:47:18;94089.38;;;28.08;41.26
71194;BME280;58903;47.210;8.618;2022-09-02T04:49:51;94089.94;;;28.07;40.80
71194;BME280;58903;47.210;8.618;2022-09-02T04:55:23;94094.72;;;28.06;41.04
71194;BME280;58903;47.210;8.618;2022-09-02T04:57:57;94088.44;;;28.06;40.88
71194;BME280;58903;47.210;8.618;2022-09-02T05:00:33;94092.28;;;28.03;41.43
71194;BME280;58903;47.210;8.618;2022-09-02T05:03:02;94098.78;;;28.05;41.31
71194;BME280;58903;47.210;8.618;2022-09-02T05:05:38;94090.28;;;28.03;41.23
71194;BME280;58903;47.210;8.618;2022-09-02T05:08:26;94088.97;;;28.04;41.19
71194;BME280;58903;47.210;8.618;2022-09-02T05:10:53;94086.97;;;28.05;40.52
71194;BME280;58903;47.210;8.618;2022-09-02T05:13:19;94089.72;;;28.05;40.78
71194;BME280;58903;47.210;8.618;2022-09-02T05:15:48;94086.75;;;28.03;40.71
71194;BME280;58903;47.210;8.618;2022-09-02T05:18:32;94087.50;;;28.03;40.90
71194;BME280;58903;47.210;8.618;2022-09-02T05:20:58;94091.00;;;28.04;40.55
71194;BME280;58903;47.210;8.618;2022-09-02T05:23:32;94095.03;;;28.03;40.97
71194;BME280;58903;47.210;8.618;2022-09-02T05:26:07;94089.31;;;28.01;40.90
71194;BME280;58903;47.210;8.618;2022-09-02T05:28:33;94094.09;;;28.00;40.73
71194;BME280;58903;47.210;8.618;2022-09-02T05:31:07;94090.56;;;28.00;40.62
71194;BME280;58903;47.210;8.618;2022-09-02T05:33:36;94089.81;;;27.99;40.53
71194;BME280;58903;47.210;8.618;2022-09-02T05:36:04;94089.81;;;27.99;40.72
71194;BME280;58903;47.210;8.618;2022-09-02T05:38:30;94095.91;;;27.98;40.66
71194;BME280;58903;47.210;8.618;2022-09-02T05:41:03;94094.84;;;28.01;40.71
71194;BME280;58903;47.210;8.618;2022-09-02T05:43:38;94092.06;;;28.01;40.25
71194;BME280;58903;47.210;8.618;2022-09-02T05:46:08;94092.59;;;27.99;40.70
71194;BME280;58903;47.210;8.618;2022-09-02T05:48:44;94095.59;;;28.01;40.77
71194;BME280;58903;47.210;8.618;2022-09-02T05:52:05;94100.88;;;27.99;40.67
71194;BME280;58903;47.210;8.618;2022-09-02T05:54:45;94095.91;;;27.98;40.67
71194;BME280;58903;47.210;8.618;2022-09-02T05:57:23;94102.94;;;27.99;40.71
71194;BME280;58903;47.210;8.618;2022-09-02T06:00:04;94099.94;;;27.97;40.88
71194;BME280;58903;47.210;8.618;2022-09-02T06:02:42;94102.19;;;27.98;40.91
71194;BME280;58903;47.210;8.618;2022-09-02T06:05:09;94100.69;;;27.97;40.66
71194;BME280;58903;47.210;8.618;2022-09-02T06:07:45;94099.94;;;27.97;40.75
71194;BME280;58903;47.210;8.618;2022-09-02T06:10:13;94104.41;;;28.00;40.35
71194;BME280;58903;47.210;8.618;2022-09-02T06:12:39;94097.59;;;28.01;40.61
71194;BME280;58903;47.210;8.618;2022-09-02T06:15:07;94103.34;;;28.03;40.78
71194;BME280;58903;47.210;8.618;2022-09-02T06:17:33;94098.56;;;28.03;40.29
71194;BME280;58903;47.210;8.618;2022-09-02T06:19:59;94101.31;;;28.03;40.77
71194;BME280;58903;47.210;8.618;2022-09-02T06:22:26;94097.81;;;28.03;40.55
71194;BME280;58903;47.210;8.618;2022-09-02T06:24:57;94094.50;;;28.04;40.33
71194;BME280;58903;47.210;8.618;2022-09-02T06:27:25;94088.97;;;28.04;40.24
71194;BME280;58903;47.210;8.618;2022-09-02T06:33:07;94088.22;;;28.04;40.94
71194;BME280;58903;47.210;8.618;2022-09-02T06:35:40;94089.53;;;28.03;40.78
71194;BME280;58903;47.210;8.618;2022-09-02T06:38:10;94089.53;;;28.03;40.70
71194;BME280;58903;47.210;8.618;2022-09-02T06:40:54;94089.31;;;28.01;40.48
71194;BME280;58903;47.210;8.618;2022-09-02T06:43:20;94093.34;;;28.00;40.87
71194;BME280;58903;47.210;8.618;2022-09-02T06:45:48;94085.59;;;27.98;40.91
71194;BME280;58903;47.210;8.618;2022-09-02T06:48:25;94095.16;;;27.97;40.83
71194;BME280;58903;47.210;8.618;2022-09-02T06:50:54;94091.88;;;27.99;41.11
71194;BME280;58903;47.210;8.618;2022-09-02T06:53:29;94091.88;;;27.99;40.62
71194;BME280;58903;47.210;8.618;2022-09-02T06:56:14;94097.41;;;27.99;40.94
71194;BME280;58903;47.210;8.618;2022-09-02T06:58:52;94090.88;;;27.96;40.60
71194;BME280;58903;47.210;8.618;2022-09-02T07:01:31;94092.91;;;27.96;40.76
71194;BME280;58903;47.210;8.618;2022-09-02T07:04:28;94087.59;;;27.98;41.49
71194;BME280;58903;47.210;8.618;2022-09-02T07:07:21;94084.84;;;27.98;40.79
71194;BME280;58903;47.210;8.618;2022-09-02T07:09:48;94091.13;;;27.98;40.96
71194;BME280;58903;47.210;8.618;2022-09-02T07:12:13;94086.34;;;27.99;41.24
71194;BME280;58903;47.210;8.618;2022-09-02T07:14:42;94089.09;;;27.99;41.15
71194;BME280;58903;47.210;8.618;2022-09-02T07:17:23;94088.56;;;28.00;41.21
71194;BME280;58903;47.210;8.618;2022-09-02T07:19:52;94085.03;;;28.00;41.31
71194;BME280;58903;47.210;8.618;2022-09-02T07:22:32;94087.06;;;27.99;40.97
71194;BME280;58903;47.210;8.618;2022-09-02T07:24:59;94085.78;;;28.00;41.16
71194;BME280;58903;47.210;8.618;2022-09-02T07:27:34;94088.56;;;28.00;41.56
71194;BME280;58903;47.210;8.618;2022-09-02T07:30:16;94085.78;;;28.00;41.26
71194;BME280;58903;47.210;8.618;2022-09-02T07:32:51;94083.78;;;28.01;41.34
71194;BME280;58903;47.210;8.618;2022-09-02T07:35:27;94085.03;;;28.00;41.42
71194;BME280;58903;47.210;8.618;2022-09-02T07:38:02;94089.81;;;27.99;41.15
71194;BME280;58903;47.210;8.618;2022-09-02T07:40:31;94081.53;;;27.99;41.27
71194;BME280;58903;47.210;8.618;2022-09-02T07:43:03;94089.31;;;28.01;41.17
71194;BME280;58903;47.210;8.618;2022-09-02T07:45:31;94085.78;;;28.00;41.02
71194;BME280;58903;47.210;8.618;2022-09-02T07:48:07;94088.78;;;28.02;41.12
71194;BME280;58903;47.210;8.618;2022-09-02T07:50:35;94083.78;;;28.01;41.23
71194;BME280;58903;47.210;8.618;2022-09-02T07:53:06;94081.97;;;28.03;40.75
71194;BME280;58903;47.210;8.618;2022-09-02T07:55:45;94087.50;;;28.03;41.27
71194;BME280;58903;47.210;8.618;2022-09-02T07:58:16;94086.00;;;28.02;41.33
71194;BME280;58903;47.210;8.618;2022-09-02T08:01:03;94090.06;;;28.01;41.16
71194;BME280;58903;47.210;8.618;2022-09-02T08:03:31;94095.34;;;27.99;41.11
71194;BME280;58903;47.210;8.618;2022-09-02T08:06:16;94099.47;;;27.93;41.55
71194;BME280;58903;47.210;8.618;2022-09-02T08:08:52;94096.94;;;27.95;41.40
71194;BME280;58903;47.210;8.618;2022-09-02T08:11:20;94092.16;;;27.95;41.44
71194;BME280;58903;47.210;8.618;2022-09-02T08:13:47;94091.41;;;27.95;41.56
71194;BME280;58903;47.210;8.618;2022-09-02T08:16:12;94095.66;;;27.96;41.05
71194;BME280;58903;47.210;8.618;2022-09-02T08:18:45;94103.44;;;27.97;41.34
71194;BME280;58903;47.210;8.618;2022-09-02T08:21:26;94098.66;;;27.98;41.17
71194;BME280;58903;47.210;8.618;2022-09-02T08:24:21;94098.13;;;27.99;41.35
71194;BME280;58903;47.210;8.618;2022-09-02T08:27:02;94097.41;;;27.99;41.30
71194;BME280;58903;47.210;8.618;2022-09-02T08:29:45;94090.38;;;27.98;41.75
71194;BME280;58903;47.210;8.618;2022-09-02T08:32:20;94088.34;;;27.98;41.67
71194;BME280;58903;47.210;8.618;2022-09-02T08:34:46;94091.13;;;27.98;41.25
71194;BME280;58903;47.210;8.618;2022-09-02T08:37:37;94094.09;;;28.00;41.37
71194;BME280;58903;47.210;8.618;2022-09-02T08:40:07;94086.34;;;27.99;41.15
71194;BME280;58903;47.210;8.618;2022-09-02T08:43:01;94086.34;;;27.99;41.60
71194;BME280;58903;47.210;8.618;2022-09-02T08:45:35;94092.59;;;27.99;41.15
71194;BME280;58903;47.210;8.618;2022-09-02T08:48:20;94099.63;;;28.00;41.38
71194;BME280;58903;47.210;8.618;2022-09-02T08:50:51;94090.78;;;28.02;41.72
71194;BME280;58903;47.210;8.618;2022-09-02T08:56:16;94089.31;;;28.01;41.41
71194;BME280;58903;47.210;8.618;2022-09-02T08:58:52;94083.78;;;28.01;41.68
71194;BME280;58903;47.210;8.618;2022-09-02T09:01:45;94091.53;;;28.02;41.38
71194;BME280;58903;47.210;8.618;2022-09-02T09:12:36;94077.72;;;28.02;41.34
71194;BME280;58903;47.210;8.618;2022-09-02T09:15:30;94081.22;;;28.03;41.39
71194;BME280;58903;47.210;8.618;2022-09-02T09:18:00;94078.47;;;28.03;41.43
71194;BME280;58903;47.210;8.618;2022-09-02T09:20:41;94074.41;;;28.04;41.63
71194;BME280;58903;47.210;8.618;2022-09-02T09:23:32;94066.84;;;28.04;41.53
71194;BME280;58903;47.210;8.618;2022-09-02T09:26:09;94067.59;;;28.05;41.74
71194;BME280;58903;47.210;8.618;2022-09-02T09:28:55;94077.38;;;28.06;41.54
71194;BME280;58903;47.210;8.618;2022-09-02T09:31:29;94069.06;;;28.06;41.04
71194;BME280;58903;47.210;8.618;2022-09-02T09:34:18;94065.59;;;28.05;41.49
71194;BME280;58903;47.210;8.618;2022-09-02T09:36:52;94072.59;;;28.06;41.90
71194;BME280;58903;47.210;8.618;2022-09-02T09:39:31;94061.31;;;28.04;41.51
71194;BME280;58903;47.210;8.618;2022-09-02T09:42:02;94069.06;;;28.06;42.19
71194;BME280;58903;47.210;8.618;2022-09-02T09:44:45;94069.63;;;28.04;41.75
71194;BME280;58903;47.210;8.618;2022-09-02T09:49:49;94060.06;;;28.05;41.72
71194;BME280;58903;47.210;8.618;2022-09-02T09:52:27;94051.00;;;28.05;41.81
71194;BME280;58903;47.210;8.618;2022-09-02T09:55:17;94055.25;;;28.06;42.16
71194;BME280;58903;47.210;8.618;2022-09-02T09:57:48;94058.78;;;28.06;41.73
71194;BME280;58903;47.210;8.618;2022-09-02T10:00:27;94058.03;;;28.06;41.83
71194;BME280;58903;47.210;8.618;2022-09-02T10:03:06;94056.53;;;28.05;42.16
71194;BME280;58903;47.210;8.618;2022-09-02T10:05:43;94051.75;;;28.05;41.81
71194;BME280;58903;47.210;8.618;2022-09-02T10:10:59;94047.72;;;28.06;42.50
71194;BME280;58903;47.210;8.618;2022-09-02T10:13:31;94052.06;;;28.02;42.76
71194;BME280;58903;47.210;8.618;2022-09-02T10:26:49;94046.13;;;27.98;42.06
71194;BME280;58903;47.210;8.618;2022-09-02T10:40:10;94052.41;;;27.98;41.73
71194;BME280;58903;47.210;8.618;2022-09-02T10:43:03;94043.38;;;27.98;41.51
71194;BME280;58903;47.210;8.618;2022-09-02T10:48:25;94039.84;;;27.97;41.49
71194;BME280;58903;47.210;8.618;2022-09-02T10:51:04;94028.28;;;27.99;41.56
71194;BME280;58903;47.210;8.618;2022-09-02T10:53:44;94032.53;;;28.00;41.14
71194;BME280;58903;47.210;8.618;2022-09-02T10:56:16;94028.28;;;27.99;41.26
71194;BME280;58903;47.210;8.618;2022-09-02T10:59:20;94030.28;;;27.98;42.02
71194;BME280;58903;47.210;8.618;2022-09-02T11:02:01;94025.53;;;27.99;41.75
71194;BME280;58903;47.210;8.618;2022-09-02T11:05:08;94023.72;;;28.01;41.52
71194;BME280;58903;47.210;8.618;2022-09-02T11:07:52;94024.44;;;28.02;41.67
71194;BME280;58903;47.210;8.618;2022-09-02T11:10:33;94020.41;;;28.03;41.82
71194;BME280;58903;47.210;8.618;2022-09-02T11:13:22;94022.63;;;28.04;41.63
71194;BME280;58903;47.210;8.618;2022-09-02T11:16:02;94024.84;;;28.06;41.20
71194;BME280;58903;47.210;8.618;2022-09-02T11:30:24;94026.00;;;28.10;41.24
71194;BME280;58903;47.210;8.618;2022-09-02T11:33:09;94024.94;;;28.13;41.70
71194;BME280;58903;47.210;8.618;2022-09-02T11:35:37;94025.47;;;28.12;41.33
71194;BME280;58903;47.210;8.618;2022-09-02T11:49:13;94028.00;;;28.23;41.49
71194;BME280;58903;47.210;8.618;2022-09-02T11:54:41;94022.13;;;28.26;41.61
71194;BME280;58903;47.210;8.618;2022-09-02T11:57:34;94027.88;;;28.28;41.22
71194;BME280;58903;47.210;8.618;2022-09-02T12:00:34;94019.91;;;28.25;41.57
71194;BME280;58903;47.210;8.618;2022-09-02T12:03:29;94015.44;;;28.22;41.56
71194;BME280;58903;47.210;8.618;2022-09-02T12:06:22;94015.44;;;28.22;41.88
71194;BME280;58903;47.210;8.618;2022-09-02T12:11:47;94005.88;;;28.23;41.71
71194;BME280;58903;47.210;8.618;2022-09-02T12:17:03;94003.31;;;28.25;42.24
71194;BME280;58903;47.210;8.618;2022-09-02T12:19:45;93998.50;;;28.25;41.57
71194;BME280;58903;47.210;8.618;2022-09-02T12:22:24;93996.69;;;28.28;41.75
71194;BME280;58903;47.210;8.618;2022-09-02T12:28:26;93988.59;;;28.30;41.60
71194;BME280;58903;47.210;8.618;2022-09-02T12:31:14;93985.50;;;28.33;41.32
71194;BME280;58903;47.210;8.618;2022-09-02T12:33:54;93975.41;;;28.36;41.51
71194;BME280;58903;47.210;8.618;2022-09-02T12:42:22;93975.59;;;28.38;41.39
71194;BME280;58903;47.210;8.618;2022-09-02T12:45:21;93975.81;;;28.40;41.94
71194;BME280;58903;47.210;8.618;2022-09-02T12:48:14;93975.25;;;28.42;41.63
71194;BME280;58903;47.210;8.618;2022-09-02T12:50:54;93969.19;;;28.43;41.96
71194;BME280;58903;47.210;8.618;2022-09-02T12:56:35;93967.34;;;28.46;41.87
71194;BME280;58903;47.210;8.618;2022-09-02T12:59:10;93959.81;;;28.46;41.82
71194;BME280;58903;47.210;8.618;2022-09-02T13:22:10;93934.31;;;28.61;41.35
71194;BME280;58903;47.210;8.618;2022-09-02T13:30:33;93922.91;;;28.64;41.48
71194;BME280;58903;47.210;8.618;2022-09-02T13:33:09;93914.81;;;28.66;41.53
71194;BME280;58903;47.210;8.618;2022-09-02T13:36:02;93918.50;;;28.69;41.44
71194;BME280;58903;47.210;8.618;2022-09-02T13:38:35;93914.81;;;28.66;41.22
71194;BME280;58903;47.210;8.618;2022-09-02T13:41:09;93914.06;;;28.66;41.63
71194;BME280;58903;47.210;8.618;2022-09-02T13:44:23;93913.50;;;28.67;41.37
71194;BME280;58903;47.210;8.618;2022-09-02T13:47:02;93914.25;;;28.68;41.14
71194;BME280;58903;47.210;8.618;2022-09-02T13:49:39;93923.50;;;28.70;41.36
71194;BME280;58903;47.210;8.618;2022-09-02T13:52:22;93908.03;;;28.75;41.46
71194;BME280;58903;47.210;8.618;2022-09-02T13:54:58;93920.06;;;28.77;41.67
71194;BME280;58903;47.210;8.618;2022-09-02T13:57:29;93919.50;;;28.79;41.51
71194;BME280;58903;47.210;8.618;2022-09-02T14:00:12;93913.63;;;28.82;41.53
71194;BME280;58903;47.210;8.618;2022-09-02T14:02:40;93917.31;;;28.85;41.19
71194;BME280;58903;47.210;8.618;2022-09-02T14:05:22;93918.81;;;28.86;41.59
71194;BME280;58903;47.210;8.618;2022-09-02T14:07:59;93922.50;;;28.88;41.44
71194;BME280;58903;47.210;8.618;2022-09-02T14:10:31;93911.97;;;28.87;41.99
71194;BME280;58903;47.210;8.618;2022-09-02T14:13:01;93915.50;;;28.87;41.23
71194;BME280;58903;47.210;8.618;2022-09-02T14:15:32;93918.47;;;28.89;41.83
71194;BME280;58903;47.210;8.618;2022-09-02T14:18:25;93916.63;;;28.92;41.25
71194;BME280;58903;47.210;8.618;2022-09-02T14:21:28;93905.38;;;28.90;41.62
71194;BME280;58903;47.210;8.618;2022-09-02T14:23:54;93906.13;;;28.90;40.97
71194;BME280;58903;47.210;8.618;2022-09-02T14:26:49;93896.50;;;28.91;41.12
71194;BME280;58903;47.210;8.618;2022-09-02T14:29:27;93905.38;;;28.90;41.00
71194;BME280;58903;47.210;8.618;2022-09-02T14:35:25;93898.88;;;28.87;41.26
71194;BME280;58903;47.210;8.618;2022-09-02T14:37:56;93899.84;;;28.90;41.00
71194;BME280;58903;47.210;8.618;2022-09-02T14:40:48;93890.03;;;28.89;41.17
71194;BME280;58903;47.210;8.618;2022-09-02T14:43:23;93891.53;;;28.90;40.63
71194;BME280;58903;47.210;8.618;2022-09-02T14:46:05;93902.59;;;28.90;40.70
71194;BME280;58903;47.210;8.618;2022-09-02T14:48:41;93916.44;;;28.90;40.71
71194;BME280;58903;47.210;8.618;2022-09-02T14:51:08;93915.69;;;28.89;40.17
71194;BME280;58903;47.210;8.618;2022-09-02T14:53:43;93919.22;;;28.90;40.75
71194;BME280;58903;47.210;8.618;2022-09-02T14:56:09;93919.22;;;28.90;40.73
71194;BME280;58903;47.210;8.618;2022-09-02T14:58:35;93929.00;;;28.91;40.02
71194;BME280;58903;47.210;8.618;2022-09-02T15:01:07;93930.81;;;28.88;39.82
71194;BME280;58903;47.210;8.618;2022-09-02T15:03:38;93928.25;;;28.90;39.93
71194;BME280;58903;47.210;8.618;2022-09-02T15:06:14;93920.16;;;28.92;39.32
71194;BME280;58903;47.210;8.618;2022-09-02T15:08:44;93914.63;;;28.92;39.26
71194;BME280;58903;47.210;8.618;2022-09-02T15:11:10;93914.63;;;28.92;39.82
71194;BME280;58903;47.210;8.618;2022-09-02T15:13:39;93913.13;;;28.91;39.37
71194;BME280;58903;47.210;8.618;2022-09-02T15:16:05;93910.16;;;28.89;39.73
71194;BME280;58903;47.210;8.618;2022-09-02T15:18:30;93925.28;;;28.88;39.85
71194;BME280;58903;47.210;8.618;2022-09-02T15:20:58;93922.31;;;28.86;39.88
71194;BME280;58903;47.210;8.618;2022-09-02T15:23:26;93922.31;;;28.86;39.73
71194;BME280;58903;47.210;8.618;2022-09-02T15:26:02;93931.91;;;28.85;40.11
71194;BME280;58903;47.210;8.618;2022-09-02T15:28:28;93938.91;;;28.86;39.69
71194;BME280;58903;47.210;8.618;2022-09-02T15:31:05;93936.91;;;28.87;40.02
71194;BME280;58903;47.210;8.618;2022-09-02T15:33:39;93938.91;;;28.86;39.91
71194;BME280;58903;47.210;8.618;2022-09-02T15:36:14;93942.63;;;28.89;39.66
71194;BME280;58903;47.210;8.618;2022-09-02T15:38:49;93938.59;;;28.90;40.48
71194;BME280;58903;47.210;8.618;2022-09-02T15:41:26;93927.84;;;28.86;40.03
71194;BME280;58903;47.210;8.618;2022-09-02T15:44:21;93938.00;;;28.84;40.35
71194;BME280;58903;47.210;8.618;2022-09-02T15:46:59;93939.28;;;28.83;40.92
71194;BME280;58903;47.210;8.618;2022-09-02T15:49:29;93944.25;;;28.84;39.93